首页
METAR-TAF:

METAR-TAF

机场 :

班基, 中非共和国

班吉-姆波科国际机场

纬度: 04-24N, 经度: 018-31E, 海拔: 365米

当前天气观测

该预报发布于1小时和2分钟前的21:00 UTC
静风
温度 22°C
湿度 53%
气压 1009 hPa
能見度: 8000

METAR: FEFF 172100Z 00000KT 8000 NSC 22/12 Q1009 NOSIG

时间: 23:02 (22:02 UTC)

预报

该预报发布于5小时和2分钟前的17:00 UTC
预报有效从17日的 18点(UTC)到 18日的 24点(UTC)
风速4节,风向东北
能見度: 4000
从 17日的 2100点(UTC)
风速节,风向
能见度10公里或以上
1500米以下无云,无积雨云
成为
从 18日的 03点(UTC)到 18日的 04点(UTC)
能見度: 2500
轻雾
成为
从 18日的 08点(UTC)到 18日的 10点(UTC)
能见度10公里或以上
1500米以下无云,无积雨云

TAF: FEFF 171700Z 1718/1824 04004KT 4000 FU NSC FM172100 00000KT CAVOK BECMG 1803/1804 2500 BR BECMG 1808/1810 CAVOK

超过4000个机场的气象观测和天气预报(METAR&TAF报告)。

可查询的气象台以黄色和红色小点在地图上表示。

将鼠标移到小点上方,可查看气象台名称。

然后点击查看天气观测和预报。

如需切换地图:点击带黑十字的绿色按钮放大地图;点击带横线的绿色按钮缩小地图;或者点击绿色箭头查看邻近地区的地图。


METAR-TAF: